Woody Creek, CO (81656)

5:55 AM MDT on August 23, 2014 (GMT -0600)
Tiehack Aspen Colorado | Change Station
CLOSE
Current Station
Personal Weather Station
Location: Aspen, CO
Elevation: 8500 ft
Nearby Weather Stations

Elev 8500 ft 39.20 °N, 106.85 °W | Updated 50 seconds ago

Scattered Clouds
Scattered Clouds
48.0 °F
Feels Like 46 °F
N
5.0
Wind Variable Wind from WNW
Gusts 6.0 mph

Today
High -- | Low -- °F
--% Chance of Precip.
Yesterday
High -- | Low -- °F
Precip. -- in
6:27 AM 7:51 PM
Waning Crescent, 4% visible
Pressure 29.82 in
Visibility 10.0 miles
Clouds Few 7000 ft
Scattered Clouds 8500 ft
Windchill 46 °F
Dew Point 47 °F
Humidity 94%
Rainfall 0.00 in
Snow Depth 1 in , 0 in , 1 in
UV 0 out of 12
Pollen 8.30 out of 12
Air Quality Not available.
Flu Activity Not available.
METAR KASE 231053Z AUTO 21006KT 10SM FEW070 SCT085 09/06 A3014 RMK AO2 SLP098 T00890056

More Conditions Fewer Conditions

Pressure 29.82 in
Visibility 10.0 miles
Clouds Few 7000 ft
Scattered Clouds 8500 ft
Windchill 46 °F
Dew Point 47 °F
Humidity 94%
Rainfall 0.00 in
Snow Depth 1 in , 0 in , 1 in
UV 0 out of 12
Pollen 8.30 out of 12
Air Quality Not available.
Flu Activity Not available.
METAR KASE 231053Z AUTO 21006KT 10SM FEW070 SCT085 09/06 A3014 RMK AO2 SLP098 T00890056

More Conditions Fewer Conditions

10-Day Weather Forecast

Almanac

Astronomy

Aug. 23, 2014 Rise Set
Actual Time 6:27 AM MDT 7:51 PM MDT
Civil Twilight 5:59 AM MDT 8:19 PM MDT
Nautical Twilight 5:26 AM MDT 8:53 PM MDT
Astronomical Twilight 4:50 AM MDT 9:28 PM MDT
Moon 4:46 AM MDT 6:37 PM MDT
Length of Visible Light 14h 19m
Length of Day
13h 23m
Tomorrow will be 2m 23s shorter.
Waning Crescent, 4% of the Moon is Illuminated
Today
Waning Crescent
Aug 25
New
Sep 2
First Quarter
Sep 8
Full
Sep 15
Last Quarter

Today's Extremes

State Highs State Lows

Community

WunderPhotos

Upload Photos

1,746,419 photos uploaded!

WunderBlogs® & News

By Dr. Jeff Masters
Director of Meteorology, Weather Underground
By Kari Strenfel
Meteorologist, Weather Underground
By Christopher C. Burt
Weather Historian, Weather Underground
August 23, 2014
August 23, 2014
August 23, 2014

Nearby

Snow Depth

Station Depth Elevation
Kiln 1 in 9600 ft
Nast Lake 0 in 8700 ft
Ivanhoe 1 in 10400 ft
Independence Pass 189 in 10600 ft
Schofield Pass 0 in 10700 ft

Earthquake Activity

City Distance Mag. Time & Date
No recent earthquake activity has been reported nearby.
Minimum magnitude displayed is 2.5.

Coastal Water Temperatures

Place Temperature
No Stations Reporting

Nearby Weather Stations